Aspen, Colorado
Current Conditions -  °F | °C
As of 11:53 PM on Friday 24 Oct 2014 (Local Time) from KASE Reporting Station
Clear Clear  
Wind Chill:   Ceiling: Unl
Heat Index:   Visibility: 10mi
Dew Point: -4°   Wind: 7mph
Humidity: 53%   Direction: 190°S
Pressure: 30.43"   Gusts: NA
Location:  39.19°N, 106.81°W
Report Text: KASE 250553Z 19006KT 10SM CLR 04/M04 A3043 RMK AO2 SLP222 T00441044 10167 20033 51008
Loading
Personal Weather Stations






























Interactive Weather Map
Tropical Storm Tracking
New forecast layout! Learn more

10-Day Weather Forecast

Advertisements
Track Severe Weather on mobile